createdAt,value
2018-12-09T00:02:24.085Z,98.10
2018-12-09T00:05:02.649Z,98.37
2018-12-09T00:07:40.869Z,97.18
2018-12-09T00:10:16.904Z,97.14
2018-12-09T00:17:53.097Z,96.73
2018-12-09T00:20:29.128Z,96.45
2018-12-09T00:23:01.597Z,96.99
2018-12-09T00:25:33.675Z,98.29
2018-12-09T00:28:06.517Z,97.12
2018-12-09T00:30:42.666Z,98.90
2018-12-09T00:33:15.557Z,96.80
2018-12-09T00:35:48.449Z,96.95
2018-12-09T00:38:20.943Z,97.07
2018-12-09T00:40:53.935Z,98.02
2018-12-09T00:43:26.532Z,97.52
2018-12-09T00:45:58.700Z,97.69
2018-12-09T00:48:30.930Z,96.62
2018-12-09T00:51:07.904Z,96.82
2018-12-09T00:53:43.993Z,97.23
2018-12-09T00:56:16.354Z,97.68
2018-12-09T00:58:49.213Z,97.31
2018-12-09T01:01:21.612Z,96.63
2018-12-09T01:03:53.739Z,97.58
2018-12-09T01:06:26.502Z,96.60
2018-12-09T01:08:59.056Z,96.15
2018-12-09T01:11:31.098Z,96.43
2018-12-09T01:14:03.781Z,96.97
2018-12-09T01:16:36.672Z,96.61
2018-12-09T01:21:39.635Z,96.31
2018-12-09T01:24:15.723Z,96.38
2018-12-09T01:26:46.675Z,96.76
2018-12-09T01:29:17.631Z,97.12
2018-12-09T01:31:49.912Z,96.97
2018-12-09T01:34:22.022Z,97.81
2018-12-09T01:36:58.180Z,97.38
2018-12-09T01:39:34.743Z,96.16
2018-12-09T01:42:11.733Z,96.25
2018-12-09T01:44:43.924Z,97.39
2018-12-09T01:47:14.286Z,95.49
2018-12-09T01:49:47.357Z,96.68
2018-12-09T01:52:19.474Z,95.54
2018-12-09T01:54:51.787Z,96.05
2018-12-09T01:57:27.853Z,96.42
2018-12-09T02:00:00.277Z,97.40
2018-12-09T02:02:37.372Z,97.03
2018-12-09T02:05:09.429Z,97.01
2018-12-09T02:07:42.500Z,97.75
2018-12-09T02:10:14.719Z,97.85
2018-12-09T02:12:51.092Z,98.59
2018-12-09T02:15:28.155Z,97.03
2018-12-09T02:18:04.422Z,96.06
2018-12-09T02:20:40.454Z,96.54
2018-12-09T02:23:12.775Z,95.91
2018-12-09T02:25:45.794Z,97.06
2018-12-09T02:28:15.887Z,96.38
2018-12-09T02:30:47.956Z,96.51
2018-12-09T02:33:24.938Z,96.41
2018-12-09T02:36:01.861Z,96.52
2018-12-09T02:38:34.802Z,97.45
2018-12-09T02:41:11.311Z,97.07
2018-12-09T02:43:44.237Z,97.33
2018-12-09T02:46:17.243Z,97.53
2018-12-09T02:48:49.515Z,97.33
2018-12-09T02:51:25.818Z,97.72
2018-12-09T02:53:57.959Z,98.04
2018-12-09T02:56:34.029Z,97.27
2018-12-09T02:59:06.189Z,97.76
2018-12-09T03:01:38.273Z,97.23
2018-12-09T03:04:10.518Z,97.28
2018-12-09T03:06:44.504Z,97.13
2018-12-09T03:09:20.539Z,96.85
2018-12-09T03:11:57.797Z,95.98
2018-12-09T03:14:31.070Z,95.61
2018-12-09T03:17:01.258Z,95.90
2018-12-09T03:19:38.313Z,94.60
2018-12-09T03:22:14.948Z,95.19
2018-12-09T03:24:47.774Z,94.90
2018-12-09T03:27:23.964Z,95.89
2018-12-09T03:30:00.413Z,95.67
2018-12-09T03:32:32.652Z,95.26
2018-12-09T03:35:09.344Z,95.90
2018-12-09T03:37:42.124Z,96.58
2018-12-09T03:40:14.780Z,95.54
2018-12-09T03:42:47.197Z,95.00
2018-12-09T03:45:20.170Z,96.36
2018-12-09T03:47:58.225Z,96.03
2018-12-09T03:50:30.757Z,95.36
2018-12-09T03:53:08.942Z,95.33
2018-12-09T03:55:39.072Z,96.64
2018-12-09T03:58:11.162Z,96.51
2018-12-09T04:00:47.374Z,95.85
2018-12-09T04:03:19.485Z,96.05
2018-12-09T04:05:58.622Z,95.57
2018-12-09T04:08:30.819Z,95.84
2018-12-09T04:11:03.342Z,95.62
2018-12-09T04:13:36.227Z,96.13
2018-12-09T04:16:06.549Z,96.90
2018-12-09T04:18:40.766Z,96.74
2018-12-09T04:21:14.292Z,97.17
2018-12-09T04:23:47.093Z,95.69
2018-12-09T04:26:23.832Z,94.49
2018-12-09T04:28:57.524Z,94.92
2018-12-09T04:31:29.849Z,94.91
2018-12-09T04:34:05.881Z,94.75
2018-12-09T04:36:41.976Z,95.12
2018-12-09T04:39:12.267Z,95.38
2018-12-09T04:41:46.009Z,95.27
2018-12-09T04:44:23.385Z,96.16
2018-12-09T04:46:56.117Z,96.71
2018-12-09T04:49:29.322Z,96.02
2018-12-09T04:52:06.933Z,95.58
2018-12-09T04:54:39.304Z,95.46
2018-12-09T04:57:09.416Z,95.03
2018-12-09T04:59:48.205Z,95.00
2018-12-09T05:02:20.945Z,95.20
2018-12-09T05:04:57.060Z,95.11
2018-12-09T05:07:29.383Z,95.42
2018-12-09T05:10:05.972Z,96.80
2018-12-09T05:12:38.835Z,96.68
2018-12-09T05:15:11.229Z,95.46
2018-12-09T05:17:47.322Z,96.14
2018-12-09T05:20:23.446Z,95.38
2018-12-09T05:22:53.577Z,96.43
2018-12-09T05:25:25.744Z,96.10
2018-12-09T05:27:58.739Z,95.96
2018-12-09T05:40:30.949Z,95.79
2018-12-09T05:43:03.508Z,96.45
2018-12-09T05:45:35.809Z,96.58
2018-12-09T05:48:11.854Z,96.32
2018-12-09T05:50:41.876Z,96.91
2018-12-09T05:53:14.124Z,94.93
2018-12-09T05:55:50.441Z,95.64
2018-12-09T05:58:25.107Z,96.00
2018-12-09T06:00:57.291Z,95.97
2018-12-09T06:03:34.254Z,97.00
2018-12-09T06:06:04.369Z,95.99
2018-12-09T06:08:36.377Z,96.94
2018-12-09T06:11:12.468Z,95.54
2018-12-09T06:13:42.863Z,96.00
2018-12-09T06:16:16.806Z,96.36
2018-12-09T06:18:52.915Z,97.04
2018-12-09T06:21:25.473Z,97.50
2018-12-09T06:23:57.744Z,96.66
2018-12-09T06:26:30.124Z,96.80
2018-12-09T06:29:06.251Z,97.51
2018-12-09T06:31:42.677Z,95.79
2018-12-09T06:34:19.620Z,96.73
2018-12-09T06:36:55.871Z,95.53
2018-12-09T06:39:31.921Z,95.92
2018-12-09T06:47:05.865Z,94.78
2018-12-09T06:49:37.946Z,95.39
2018-12-09T06:52:10.795Z,95.97
2018-12-09T06:54:43.687Z,94.87
2018-12-09T06:57:16.782Z,93.74
2018-12-09T06:59:48.839Z,93.01
2018-12-09T07:02:25.097Z,91.91
2018-12-09T07:04:58.057Z,91.98
2018-12-09T07:07:30.272Z,91.58
2018-12-09T07:10:02.633Z,90.30
2018-12-09T07:12:35.597Z,89.09
2018-12-09T07:15:08.112Z,87.96
2018-12-09T07:17:40.975Z,88.82
2018-12-09T07:20:17.219Z,88.38
2018-12-09T07:22:53.335Z,88.66
2018-12-09T07:25:26.321Z,88.05
2018-12-09T07:27:58.486Z,88.06
2018-12-09T07:30:30.828Z,88.79
2018-12-09T07:33:03.848Z,89.18
2018-12-09T07:35:39.843Z,89.54
2018-12-09T07:38:12.202Z,89.55
2018-12-09T07:40:44.538Z,89.01
2018-12-09T07:43:17.546Z,90.19
2018-12-09T07:45:49.626Z,89.96
2018-12-09T07:50:57.671Z,90.27
2018-12-09T07:53:29.993Z,91.14
2018-12-09T07:56:06.301Z,90.94
2018-12-09T07:58:38.742Z,89.19
2018-12-09T08:01:10.763Z,87.26
2018-12-09T08:03:47.460Z,85.38
2018-12-09T08:06:18.374Z,84.40
2018-12-09T08:08:50.426Z,83.02
2018-12-09T08:11:26.831Z,81.23
2018-12-09T08:13:59.797Z,82.08
2018-12-09T08:16:29.966Z,82.85
2018-12-09T08:19:00.214Z,82.32
2018-12-09T08:21:36.351Z,81.81
2018-12-09T08:24:08.615Z,80.92
2018-12-09T08:26:44.876Z,81.13
2018-12-09T08:29:21.182Z,80.44
2018-12-09T08:31:53.664Z,79.36
2018-12-09T08:34:29.705Z,78.50
2018-12-09T08:37:05.915Z,76.92
2018-12-09T08:39:42.052Z,76.57
2018-12-09T08:42:15.136Z,75.98
2018-12-09T08:44:47.251Z,75.43
2018-12-09T08:47:20.213Z,74.02
2018-12-09T08:49:56.818Z,73.12
2018-12-09T08:59:59.431Z,71.47
2018-12-09T09:02:36.463Z,69.87
2018-12-09T09:05:09.379Z,70.21
2018-12-09T09:07:41.499Z,70.29
2018-12-09T09:10:17.799Z,70.26
2018-12-09T09:12:55.030Z,73.42
2018-12-09T09:15:25.060Z,74.18
2018-12-09T09:17:56.011Z,75.73
2018-12-09T09:20:28.827Z,76.46
2018-12-09T09:23:05.147Z,76.78
2018-12-09T09:25:37.532Z,76.61
2018-12-09T09:28:09.869Z,77.63
2018-12-09T09:30:46.127Z,79.17
2018-12-09T09:33:22.148Z,81.11
2018-12-09T09:35:54.579Z,82.08
2018-12-09T09:38:27.420Z,81.25
2018-12-09T09:40:59.756Z,80.24
2018-12-09T09:43:36.038Z,79.43
2018-12-09T09:46:08.076Z,80.07
2018-12-09T09:48:40.352Z,79.84
2018-12-09T09:51:16.791Z,79.49
2018-12-09T09:53:49.023Z,79.10
2018-12-09T09:56:21.109Z,79.56
2018-12-09T09:58:57.234Z,79.91
2018-12-09T10:01:30.126Z,82.25
2018-12-09T10:14:00.938Z,84.80
2018-12-09T10:19:12.102Z,83.89
2018-12-09T10:21:44.344Z,81.24
2018-12-09T10:24:16.337Z,82.88
2018-12-09T10:26:48.798Z,85.29
2018-12-09T10:29:24.954Z,81.55
2018-12-09T10:31:58.100Z,80.36
2018-12-09T10:34:30.241Z,82.24
2018-12-09T10:37:02.399Z,81.31
2018-12-09T10:39:41.627Z,81.56
2018-12-09T10:42:14.049Z,79.53
2018-12-09T10:44:44.777Z,78.01
2018-12-09T10:47:18.714Z,78.08
2018-12-09T10:49:51.608Z,79.43
2018-12-09T10:52:24.837Z,80.90
2018-12-09T10:54:55.744Z,80.66
2018-12-09T10:57:26.056Z,81.71
2018-12-09T10:59:58.779Z,81.21
2018-12-09T11:02:31.140Z,80.68
2018-12-09T11:05:03.805Z,80.62
2018-12-09T11:07:36.004Z,80.91
2018-12-09T11:10:08.241Z,82.13
2018-12-09T11:12:40.969Z,81.99
2018-12-09T11:15:13.453Z,82.09
2018-12-09T11:25:17.208Z,81.74
2018-12-09T11:27:49.352Z,81.70
2018-12-09T11:30:21.641Z,82.33
2018-12-09T11:32:59.033Z,81.96
2018-12-09T11:35:31.947Z,81.88
2018-12-09T11:38:08.233Z,82.06
2018-12-09T11:40:40.464Z,81.60
2018-12-09T11:43:14.201Z,81.41
2018-12-09T11:45:50.611Z,82.75
2018-12-09T11:48:21.604Z,82.71
2018-12-09T11:50:51.769Z,82.14
2018-12-09T11:53:26.549Z,82.21
2018-12-09T11:55:57.244Z,82.67
2018-12-09T11:58:33.409Z,83.62
2018-12-09T12:01:05.534Z,82.88
2018-12-09T12:03:35.661Z,82.34
2018-12-09T12:06:11.893Z,82.87
2018-12-09T12:08:48.466Z,82.55
2018-12-09T12:11:20.591Z,83.26
2018-12-09T12:13:53.625Z,83.30
2018-12-09T12:16:24.517Z,84.22
2018-12-09T12:18:56.955Z,84.11
2018-12-09T12:21:29.060Z,83.03
2018-12-09T12:24:05.929Z,83.52
2018-12-09T12:31:44.683Z,82.86
2018-12-09T12:34:15.207Z,82.27
2018-12-09T12:36:45.335Z,81.44
2018-12-09T12:39:15.447Z,80.88
2018-12-09T12:41:51.895Z,82.66
2018-12-09T12:44:24.037Z,83.03
2018-12-09T12:47:00.296Z,82.67
2018-12-09T12:49:32.446Z,81.85
2018-12-09T12:52:04.827Z,82.00
2018-12-09T12:54:37.253Z,82.09
2018-12-09T12:57:13.376Z,81.87
2018-12-09T12:59:49.374Z,82.26
2018-12-09T13:02:25.584Z,80.71
2018-12-09T13:05:01.733Z,80.62
2018-12-09T13:07:38.003Z,80.28
2018-12-09T13:10:10.387Z,80.98
2018-12-09T13:12:43.282Z,81.24
2018-12-09T13:15:15.374Z,81.93
2018-12-09T13:17:47.533Z,81.79
2018-12-09T13:20:23.773Z,82.08
2018-12-09T13:22:59.912Z,82.50
2018-12-09T13:25:36.894Z,82.51
2018-12-09T13:28:13.099Z,82.61
2018-12-09T13:30:45.727Z,81.12
2018-12-09T13:58:21.648Z,81.48
2018-12-09T14:00:53.711Z,82.50
2018-12-09T14:03:29.993Z,82.07
2018-12-09T14:06:02.157Z,81.86
2018-12-09T14:08:35.235Z,81.96
2018-12-09T14:11:07.539Z,82.47
2018-12-09T14:13:43.740Z,83.48
2018-12-09T14:16:19.827Z,83.91
2018-12-09T14:18:56.095Z,83.99
2018-12-09T14:21:26.212Z,84.52
2018-12-09T14:23:56.861Z,82.96
2018-12-09T14:26:28.935Z,84.13
2018-12-09T14:29:05.207Z,84.57
2018-12-09T14:31:36.468Z,84.35
2018-12-09T14:34:09.407Z,84.38
2018-12-09T14:36:42.381Z,84.42
2018-12-09T14:39:14.739Z,84.99
2018-12-09T14:41:46.778Z,85.10
2018-12-09T14:44:22.931Z,86.00
2018-12-09T14:46:55.465Z,85.42
2018-12-09T14:49:27.737Z,84.90
2018-12-09T14:51:59.800Z,85.70
2018-12-09T14:54:32.452Z,85.59
2018-12-09T14:57:05.380Z,86.31
2018-12-09T14:59:35.689Z,85.66
2018-12-09T15:02:11.972Z,85.91
2018-12-09T15:04:44.288Z,86.66
2018-12-09T15:07:16.690Z,87.00
2018-12-09T15:09:53.054Z,86.44
2018-12-09T15:12:31.692Z,87.05
2018-12-09T15:15:04.736Z,87.66
2018-12-09T15:17:35.618Z,87.18
2018-12-09T15:20:09.011Z,87.48
2018-12-09T15:22:41.875Z,86.31
2018-12-09T15:25:14.781Z,86.77
2018-12-09T15:27:47.007Z,87.39
2018-12-09T15:30:18.071Z,87.96
2018-12-09T15:32:54.223Z,87.87
2018-12-09T15:35:26.355Z,87.56
2018-12-09T15:38:02.607Z,88.38
2018-12-09T15:40:35.556Z,88.11
2018-12-09T15:43:07.727Z,88.64
2018-12-09T15:48:22.472Z,87.26
2018-12-09T15:50:58.833Z,87.25
2018-12-09T15:53:31.760Z,87.96
2018-12-09T15:56:02.751Z,87.71
2018-12-09T15:58:32.966Z,88.17
2018-12-09T16:01:05.250Z,88.34
2018-12-09T16:03:38.177Z,88.60
2018-12-09T16:06:14.601Z,88.17
2018-12-09T16:08:50.744Z,87.90
2018-12-09T16:11:22.758Z,88.63
2018-12-09T16:13:55.130Z,88.30
2018-12-09T16:16:27.418Z,88.54
2018-12-09T16:18:59.553Z,88.79
2018-12-09T16:21:30.801Z,89.29
2018-12-09T16:24:08.615Z,90.04
2018-12-09T16:26:44.870Z,89.94
2018-12-09T16:29:18.014Z,89.50
2018-12-09T16:31:50.219Z,89.23
2018-12-09T16:34:22.348Z,89.68
2018-12-09T16:36:54.649Z,90.20
2018-12-09T16:39:30.602Z,89.66
2018-12-09T16:42:06.881Z,90.02
2018-12-09T16:44:42.940Z,90.21
2018-12-09T16:47:15.200Z,90.04
2018-12-09T16:49:51.428Z,90.91
2018-12-09T16:52:24.241Z,91.34
2018-12-09T16:54:56.537Z,91.51
2018-12-09T16:57:26.841Z,91.50
2018-12-09T16:59:59.010Z,92.11
2018-12-09T17:02:31.537Z,92.23
2018-12-09T17:05:03.809Z,91.78
2018-12-09T17:07:42.243Z,91.58
2018-12-09T17:10:14.996Z,91.19
2018-12-09T17:12:51.931Z,92.08
2018-12-09T17:15:28.152Z,91.41
2018-12-09T17:17:58.775Z,91.08
2018-12-09T17:20:30.864Z,90.90
2018-12-09T17:23:03.919Z,90.15
2018-12-09T17:25:36.203Z,89.90
2018-12-09T17:28:06.554Z,90.81
2018-12-09T17:30:39.535Z,90.38
2018-12-09T17:33:11.895Z,90.02
2018-12-09T17:35:45.347Z,90.57
2018-12-09T17:38:17.824Z,90.62
2018-12-09T17:40:53.880Z,90.79
2018-12-09T17:43:26.454Z,90.59
2018-12-09T17:45:56.524Z,91.46
2018-12-09T17:56:01.908Z,91.64
2018-12-09T17:58:35.046Z,91.93
2018-12-09T18:01:17.968Z,92.36
2018-12-09T18:03:54.227Z,92.14
2018-12-09T18:06:27.429Z,92.61
2018-12-09T18:09:00.548Z,92.03
2018-12-09T18:11:36.715Z,91.79
2018-12-09T18:14:10.915Z,92.41
2018-12-09T18:16:48.107Z,92.71
2018-12-09T18:19:21.200Z,93.15
2018-12-09T18:21:54.155Z,92.47
2018-12-09T18:24:25.387Z,92.54
2018-12-09T18:27:01.611Z,92.87
2018-12-09T18:29:37.811Z,93.13
2018-12-09T18:32:14.078Z,93.39
2018-12-09T18:34:46.992Z,93.43
2018-12-09T18:37:24.363Z,93.34
2018-12-09T18:40:00.691Z,93.40
2018-12-09T18:42:37.682Z,93.94
2018-12-09T18:45:14.000Z,94.45
2018-12-09T18:47:46.941Z,94.16
2018-12-09T18:50:20.015Z,94.24
2018-12-09T18:52:57.168Z,94.45
2018-12-09T18:55:29.900Z,94.06
2018-12-09T18:58:03.004Z,93.95
2018-12-09T19:00:36.591Z,94.15
2018-12-09T19:03:09.480Z,94.63
2018-12-09T19:05:42.459Z,94.26
2018-12-09T19:08:14.745Z,94.47
2018-12-09T19:10:51.319Z,94.42
2018-12-09T19:13:24.148Z,94.10
2018-12-09T19:16:00.855Z,93.93
2018-12-09T19:18:33.415Z,93.86
2018-12-09T19:21:05.771Z,94.33
2018-12-09T19:23:38.472Z,93.96
2018-12-09T19:26:16.728Z,94.35
2018-12-09T19:28:49.494Z,94.00
2018-12-09T19:31:25.759Z,94.30
2018-12-09T19:33:56.104Z,94.18
2018-12-09T19:36:29.162Z,94.88
2018-12-09T19:39:08.276Z,95.57
2018-12-09T19:41:41.382Z,95.40
2018-12-09T19:44:14.463Z,95.59
2018-12-09T19:46:46.735Z,95.98
2018-12-09T19:49:23.056Z,95.61
2018-12-09T19:51:55.799Z,94.65
2018-12-09T19:54:26.063Z,94.17
2018-12-09T20:01:59.152Z,94.33
2018-12-09T20:04:33.125Z,95.04
2018-12-09T20:07:06.920Z,95.17
2018-12-09T20:09:44.306Z,95.07
2018-12-09T20:12:17.754Z,94.80
2018-12-09T20:14:48.691Z,94.90
2018-12-09T20:17:22.046Z,94.56
2018-12-09T20:19:54.933Z,94.85
2018-12-09T20:22:31.180Z,95.12
2018-12-09T20:25:02.378Z,96.07
2018-12-09T20:27:38.591Z,95.30
2018-12-09T20:30:11.596Z,95.35
2018-12-09T20:32:43.759Z,95.72
2018-12-09T20:35:13.966Z,94.91
2018-12-09T20:37:47.204Z,93.74
2018-12-09T20:40:20.248Z,93.01
2018-12-09T20:42:56.369Z,93.56
2018-12-09T20:45:29.176Z,93.76
2018-12-09T20:48:02.685Z,93.85
2018-12-09T20:50:33.548Z,94.32
2018-12-09T20:53:06.527Z,94.83
2018-12-09T20:55:38.871Z,94.75
2018-12-09T20:58:12.037Z,95.39
2018-12-09T21:05:46.307Z,94.61
2018-12-09T21:08:22.865Z,94.94
2018-12-09T21:10:55.559Z,94.96
2018-12-09T21:13:31.805Z,94.94
2018-12-09T21:16:04.756Z,95.44
2018-12-09T21:18:36.990Z,95.65
2018-12-09T21:21:09.331Z,95.78
2018-12-09T21:23:42.267Z,95.55
2018-12-09T21:26:14.536Z,95.31
2018-12-09T21:28:47.482Z,95.57
2018-12-09T21:31:26.092Z,95.71
2018-12-09T21:34:00.888Z,96.13
2018-12-09T21:36:33.911Z,96.64
2018-12-09T21:39:07.590Z,95.92
2018-12-09T21:41:40.601Z,95.97
2018-12-09T21:44:16.885Z,96.08
2018-12-09T21:46:47.136Z,96.87
2018-12-09T21:49:23.669Z,96.45
2018-12-09T21:51:55.892Z,95.41
2018-12-09T21:54:27.961Z,96.20
2018-12-09T21:57:00.181Z,95.09
2018-12-09T21:59:32.306Z,95.07
2018-12-09T22:02:05.333Z,95.60
2018-12-09T22:04:41.901Z,96.58
2018-12-09T22:07:18.961Z,96.26
2018-12-09T22:09:55.970Z,96.50
2018-12-09T22:12:27.040Z,96.49
2018-12-09T22:14:59.260Z,96.38
2018-12-09T22:17:35.338Z,96.82
2018-12-09T22:20:07.615Z,96.51
2018-12-09T22:22:43.774Z,97.13
2018-12-09T22:25:20.812Z,96.57
2018-12-09T22:27:52.897Z,97.26
2018-12-09T22:30:28.996Z,95.95
2018-12-09T22:33:06.926Z,95.52
2018-12-09T22:35:39.263Z,95.47
2018-12-09T22:38:11.940Z,95.37
2018-12-09T22:40:44.123Z,95.25
2018-12-09T22:43:16.380Z,94.49
2018-12-09T22:45:53.482Z,95.17
2018-12-09T22:48:29.660Z,94.87
2018-12-09T22:51:05.822Z,95.87
2018-12-09T22:53:42.304Z,95.52
2018-12-09T22:56:18.513Z,95.14
2018-12-09T22:58:53.374Z,95.17
2018-12-09T23:01:24.106Z,95.94
2018-12-09T23:04:00.158Z,95.34
2018-12-09T23:06:33.049Z,95.67
2018-12-09T23:09:09.420Z,96.11
2018-12-09T23:11:42.352Z,95.27
2018-12-09T23:14:18.535Z,95.50
2018-12-09T23:16:50.732Z,95.63
2018-12-09T23:19:26.850Z,95.62
2018-12-09T23:22:02.985Z,96.32
2018-12-09T23:24:39.993Z,96.28
2018-12-09T23:27:12.827Z,96.43
2018-12-09T23:29:48.983Z,96.45
2018-12-09T23:32:25.184Z,96.71
2018-12-09T23:34:58.166Z,96.94
2018-12-09T23:37:28.199Z,97.31
2018-12-09T23:40:06.709Z,96.76
2018-12-09T23:42:39.384Z,97.17
2018-12-09T23:45:11.708Z,96.98
2018-12-09T23:47:43.926Z,97.96
2018-12-09T23:50:15.915Z,97.58
2018-12-09T23:52:51.954Z,97.43
2018-12-09T23:55:28.310Z,96.57
2018-12-09T23:58:00.456Z,95.81
